Time;durP1;ratioP1;P1;durP2;ratioP2;P2;SDS_P1;SDS_P2;PMS_P1;PMS_P2;Temp;Humidity;BMP_temperature;BMP_pressure;BME280_temperature;BME280_humidity;BME280_pressure;Samples;Min_cycle;Max_cycle;Signal;HPM_P1;HPM_P2
2023/03/06 00:00:44;;;;;;;24.35;12.65;;;3.80;99.90;;;;;;4971467;28;20067;-76
2023/03/06 00:03:10;;;;;;;25.20;11.75;;;3.80;99.90;;;;;;4968074;28;20121;-76
2023/03/06 00:05:36;;;;;;;25.15;11.80;;;3.80;99.90;;;;;;4969515;28;20030;-76
2023/03/06 00:08:02;;;;;;;27.52;13.05;;;3.80;99.90;;;;;;4967459;28;20050;-76
2023/03/06 00:10:30;;;;;;;23.65;11.95;;;3.80;99.90;;;;;;4969813;28;20027;-75
2023/03/06 00:12:59;;;;;;;25.27;10.82;;;3.70;99.90;;;;;;4970392;28;20150;-76
2023/03/06 00:15:25;;;;;;;26.45;11.57;;;3.80;99.90;;;;;;4984883;28;20117;-76
2023/03/06 00:17:52;;;;;;;27.00;12.45;;;3.80;99.90;;;;;;4970563;28;20479;-76
2023/03/06 00:20:18;;;;;;;24.65;11.93;;;3.80;99.90;;;;;;4967997;28;20089;-76
2023/03/06 00:22:45;;;;;;;30.80;12.98;;;3.80;99.90;;;;;;4968838;28;20023;-76
2023/03/06 00:25:13;;;;;;;28.23;11.88;;;3.80;99.90;;;;;;4970365;28;20042;-75
2023/03/06 00:27:39;;;;;;;28.92;12.18;;;3.80;99.90;;;;;;4966589;28;20027;-76
2023/03/06 00:30:06;;;;;;;24.55;12.80;;;3.70;99.90;;;;;;4968316;28;21335;-76
2023/03/06 00:32:32;;;;;;;24.45;12.20;;;3.80;99.90;;;;;;4970284;28;20472;-76
2023/03/06 00:34:57;;;;;;;27.52;12.63;;;3.70;99.90;;;;;;4973565;28;20014;-76
2023/03/06 00:37:24;;;;;;;25.77;12.07;;;3.70;99.90;;;;;;4971469;28;20035;-74
2023/03/06 00:39:49;;;;;;;28.75;12.52;;;3.70;99.90;;;;;;4969841;28;20110;-75
2023/03/06 00:42:16;;;;;;;25.73;11.25;;;3.70;99.90;;;;;;4966610;28;20563;-75
2023/03/06 00:44:42;;;;;;;26.27;11.55;;;3.70;99.90;;;;;;4969659;28;20062;-76
2023/03/06 00:47:07;;;;;;;24.80;11.98;;;3.70;99.90;;;;;;4971375;28;20047;-76
2023/03/06 00:49:34;;;;;;;23.42;11.93;;;3.70;99.90;;;;;;4973530;28;20034;-75
2023/03/06 00:51:59;;;;;;;25.95;12.63;;;3.70;99.90;;;;;;4969308;28;20027;-75
2023/03/06 00:54:25;;;;;;;25.23;12.25;;;3.70;99.90;;;;;;4971224;28;20062;-75
2023/03/06 00:56:51;;;;;;;25.70;11.30;;;3.70;99.90;;;;;;4969867;28;20113;-75
2023/03/06 00:59:16;;;;;;;24.45;11.50;;;3.70;99.90;;;;;;4969986;28;20082;-76
2023/03/06 01:01:42;;;;;;;23.77;11.15;;;3.70;99.90;;;;;;4967558;28;20114;-76
2023/03/06 01:04:08;;;;;;;21.58;11.05;;;3.70;99.90;;;;;;4969900;28;20045;-75
2023/03/06 01:06:33;;;;;;;20.55;10.38;;;3.70;99.90;;;;;;4968291;28;20082;-76
2023/03/06 01:08:59;;;;;;;20.80;10.38;;;3.70;99.90;;;;;;4969026;28;20034;-75
2023/03/06 01:11:25;;;;;;;23.52;10.68;;;3.70;99.90;;;;;;4970150;28;20042;-75
2023/03/06 01:13:51;;;;;;;22.88;10.23;;;3.70;99.90;;;;;;4965824;28;20050;-75
2023/03/06 01:16:17;;;;;;;18.48;10.38;;;3.70;99.90;;;;;;4968674;28;20042;-75
2023/03/06 01:18:44;;;;;;;24.02;10.75;;;3.70;99.90;;;;;;4971066;28;20081;-75
2023/03/06 01:21:09;;;;;;;19.48;10.77;;;3.70;99.90;;;;;;4963959;28;20062;-76
2023/03/06 01:23:35;;;;;;;22.38;9.93;;;3.70;99.90;;;;;;4967193;28;20125;-76
2023/03/06 01:26:01;;;;;;;23.42;10.25;;;3.70;99.90;;;;;;4970278;28;20412;-75
2023/03/06 01:28:27;;;;;;;21.63;9.73;;;3.70;99.90;;;;;;4969862;28;20420;-75
2023/03/06 01:30:53;;;;;;;21.13;10.65;;;3.60;99.90;;;;;;4968468;28;20031;-76
2023/03/06 01:33:19;;;;;;;18.88;9.82;;;3.60;99.90;;;;;;4972202;28;20047;-76
2023/03/06 01:35:45;;;;;;;25.30;11.20;;;3.60;99.90;;;;;;4965731;28;20050;-75
2023/03/06 01:38:12;;;;;;;20.90;10.32;;;3.60;99.90;;;;;;4967559;28;20035;-74
2023/03/06 01:40:38;;;;;;;23.27;10.25;;;3.60;99.90;;;;;;4966234;28;20038;-76
2023/03/06 01:43:25;;;;;;;20.88;10.07;;;3.60;99.90;;;;;;4970459;28;20023;-75
2023/03/06 01:45:51;;;;;;;28.10;10.40;;;3.60;99.90;;;;;;4980378;28;20126;-76
2023/03/06 01:48:22;;;;;;;24.92;10.27;;;3.60;99.90;;;;;;4966497;28;20102;-75
2023/03/06 01:50:49;;;;;;;22.08;9.82;;;3.60;99.90;;;;;;4965659;28;20360;-76
2023/03/06 01:53:15;;;;;;;22.92;10.20;;;3.60;99.90;;;;;;4971685;28;20022;-76
2023/03/06 01:55:41;;;;;;;23.73;11.18;;;3.60;99.90;;;;;;4969667;28;20026;-76
2023/03/06 01:58:11;;;;;;;17.10;9.00;;;3.60;99.90;;;;;;4967764;28;20026;-76
2023/03/06 02:00:37;;;;;;;17.65;8.75;;;3.60;99.90;;;;;;4970413;28;20049;-76
2023/03/06 02:03:08;;;;;;;22.13;9.77;;;3.60;99.90;;;;;;4984338;28;20051;-76
2023/03/06 02:05:34;;;;;;;19.63;9.25;;;3.60;99.90;;;;;;4973802;28;20480;-76
2023/03/06 02:08:01;;;;;;;23.83;10.18;;;3.60;99.90;;;;;;4968303;28;20027;-76
2023/03/06 02:10:27;;;;;;;20.77;9.95;;;3.60;99.90;;;;;;4965142;28;20129;-75
2023/03/06 02:12:52;;;;;;;21.02;9.80;;;3.60;99.90;;;;;;4965525;28;20039;-75
2023/03/06 02:15:21;;;;;;;15.57;8.40;;;3.60;99.90;;;;;;4970894;28;20054;-76
2023/03/06 02:17:48;;;;;;;17.95;9.43;;;3.60;99.90;;;;;;4968049;28;20039;-76
2023/03/06 02:20:35;;;;;;;19.83;9.60;;;3.60;99.90;;;;;;4969357;28;20031;-76
2023/03/06 02:23:04;;;;;;;21.45;9.60;;;3.60;99.90;;;;;;4981366;28;20092;-76
2023/03/06 02:25:37;;;;;;;22.13;10.50;;;3.50;99.90;;;;;;4967777;28;20027;-76
2023/03/06 02:28:06;;;;;;;22.15;10.77;;;3.50;99.90;;;;;;4966181;28;20027;-75
2023/03/06 02:30:32;;;;;;;21.70;11.05;;;3.50;99.90;;;;;;4969825;28;20027;-77
2023/03/06 02:32:58;;;;;;;22.58;11.63;;;3.50;99.90;;;;;;4967151;28;20031;-75
2023/03/06 02:35:29;;;;;;;25.73;11.88;;;3.50;99.90;;;;;;4999433;23;20097;-73
2023/03/06 02:37:57;;;;;;;24.00;11.20;;;3.50;99.90;;;;;;4967185;28;20097;-73
2023/03/06 02:40:24;;;;;;;26.48;12.65;;;3.50;99.90;;;;;;4967969;28;20035;-73
2023/03/06 02:42:55;;;;;;;27.70;12.77;;;3.60;99.90;;;;;;4972269;28;20035;-73
2023/03/06 02:45:44;;;;;;;25.00;12.63;;;3.50;99.90;;;;;;4968756;28;20495;-72
2023/03/06 02:48:11;;;;;;;25.73;12.43;;;3.50;99.90;;;;;;4968746;28;20113;-73
2023/03/06 02:50:37;;;;;;;25.88;12.38;;;3.50;99.90;;;;;;4966641;28;20101;-72
2023/03/06 02:53:03;;;;;;;26.90;12.15;;;3.50;99.90;;;;;;4964903;28;20234;-73
2023/03/06 02:55:29;;;;;;;23.98;11.20;;;3.50;99.90;;;;;;4966679;28;20027;-72
2023/03/06 02:57:54;;;;;;;30.98;12.07;;;3.50;99.90;;;;;;4964352;28;20124;-73
2023/03/06 03:00:20;;;;;;;25.35;11.00;;;3.50;99.90;;;;;;4964179;28;20664;-73
2023/03/06 03:02:45;;;;;;;27.05;12.15;;;3.50;99.90;;;;;;4963822;28;20065;-73
2023/03/06 03:05:11;;;;;;;26.17;13.65;;;3.50;99.90;;;;;;4964579;28;20038;-72
2023/03/06 03:07:37;;;;;;;29.23;13.35;;;3.50;99.90;;;;;;4966700;28;20027;-72
2023/03/06 03:10:03;;;;;;;24.73;13.30;;;3.50;99.90;;;;;;4965854;28;20110;-73
2023/03/06 03:12:28;;;;;;;22.80;12.18;;;3.50;99.90;;;;;;4964855;28;20031;-73
2023/03/06 03:14:55;;;;;;;23.38;11.25;;;3.50;99.90;;;;;;4967703;28;20027;-74
2023/03/06 03:17:21;;;;;;;25.25;12.65;;;3.50;99.90;;;;;;4967135;28;20031;-73
2023/03/06 03:19:47;;;;;;;26.10;12.18;;;3.50;99.90;;;;;;4964281;28;20019;-73
2023/03/06 03:22:12;;;;;;;26.73;12.07;;;3.50;99.90;;;;;;4964893;28;20030;-73
2023/03/06 03:24:38;;;;;;;29.95;12.35;;;3.50;99.90;;;;;;4959831;28;20444;-73
2023/03/06 03:27:05;;;;;;;23.30;10.82;;;3.50;99.90;;;;;;4967263;28;20031;-72
2023/03/06 03:29:31;;;;;;;23.48;11.45;;;3.40;99.90;;;;;;4962622;28;20111;-72
2023/03/06 03:31:56;;;;;;;28.08;11.50;;;3.50;99.90;;;;;;4968820;28;20038;-72
2023/03/06 03:34:22;;;;;;;23.92;11.98;;;3.40;99.90;;;;;;4965547;28;20057;-72
2023/03/06 03:36:48;;;;;;;27.48;12.55;;;3.40;99.90;;;;;;4961402;28;20550;-73
2023/03/06 03:39:13;;;;;;;20.58;11.07;;;3.40;99.90;;;;;;4969585;28;20498;-73
2023/03/06 03:41:39;;;;;;;27.45;12.43;;;3.40;99.90;;;;;;4968958;28;20055;-73
2023/03/06 03:44:04;;;;;;;24.33;11.73;;;3.50;99.90;;;;;;4965434;28;20074;-73
2023/03/06 03:46:30;;;;;;;24.10;11.95;;;3.40;99.90;;;;;;4965514;28;20038;-71
2023/03/06 03:48:56;;;;;;;21.95;10.35;;;3.40;99.90;;;;;;4968859;28;20023;-73
2023/03/06 03:51:22;;;;;;;20.73;10.63;;;3.40;99.90;;;;;;4968925;28;20037;-73
2023/03/06 03:53:48;;;;;;;20.75;9.90;;;3.40;99.90;;;;;;4963108;28;20030;-73
2023/03/06 03:56:14;;;;;;;22.00;10.70;;;3.40;99.90;;;;;;4965198;28;20041;-73
2023/03/06 03:58:39;;;;;;;24.20;10.63;;;3.40;99.90;;;;;;4964293;28;20035;-73
2023/03/06 04:01:05;;;;;;;24.15;11.15;;;3.40;99.90;;;;;;4962790;28;20042;-71
2023/03/06 04:03:31;;;;;;;21.48;11.40;;;3.40;99.90;;;;;;4966675;28;20037;-71
2023/03/06 04:05:57;;;;;;;21.55;10.23;;;3.40;99.90;;;;;;4958848;28;20535;-73
2023/03/06 04:08:24;;;;;;;22.98;10.82;;;3.40;99.90;;;;;;4965649;28;20059;-72
2023/03/06 04:10:51;;;;;;;23.17;10.75;;;3.40;99.90;;;;;;4978173;28;20061;-73
2023/03/06 04:13:19;;;;;;;22.27;9.93;;;3.40;99.90;;;;;;4969063;28;20365;-73
2023/03/06 04:15:46;;;;;;;23.95;10.32;;;3.40;99.90;;;;;;4968883;28;20034;-72
2023/03/06 04:18:12;;;;;;;22.25;11.13;;;3.40;99.90;;;;;;4966818;28;20042;-73
2023/03/06 04:20:38;;;;;;;21.42;10.40;;;3.40;99.90;;;;;;4967033;28;20035;-71
2023/03/06 04:23:04;;;;;;;20.23;10.05;;;3.40;99.90;;;;;;4967711;28;20080;-73
2023/03/06 04:25:29;;;;;;;21.48;10.20;;;3.40;99.90;;;;;;4959947;28;20074;-72
2023/03/06 04:27:55;;;;;;;17.88;10.18;;;3.50;99.90;;;;;;4967559;28;20387;-73
2023/03/06 04:30:21;;;;;;;18.80;10.55;;;3.50;99.90;;;;;;4965644;28;20031;-73
2023/03/06 04:32:46;;;;;;;20.80;10.10;;;3.50;99.90;;;;;;4964222;28;20361;-73
2023/03/06 04:35:12;;;;;;;23.30;9.93;;;3.50;99.90;;;;;;4966864;28;20076;-72
2023/03/06 04:37:38;;;;;;;20.90;9.93;;;3.50;99.90;;;;;;4970540;28;20043;-73
2023/03/06 04:40:03;;;;;;;22.45;10.10;;;3.50;99.90;;;;;;4969828;28;20476;-73
2023/03/06 04:42:29;;;;;;;21.00;9.80;;;3.50;99.90;;;;;;4967793;28;20085;-73
2023/03/06 04:44:55;;;;;;;19.50;10.18;;;3.50;99.90;;;;;;4968987;28;20026;-73
2023/03/06 04:47:20;;;;;;;22.20;10.50;;;3.50;99.90;;;;;;4972839;28;20112;-73
2023/03/06 04:49:46;;;;;;;22.90;10.55;;;3.50;99.90;;;;;;4968572;28;20042;-73
2023/03/06 04:52:12;;;;;;;21.55;10.18;;;3.50;99.90;;;;;;4973364;28;20025;-73
2023/03/06 04:54:37;;;;;;;23.08;10.43;;;3.50;99.90;;;;;;4969172;28;20093;-71
2023/03/06 04:57:03;;;;;;;22.52;10.93;;;3.50;99.90;;;;;;4973709;28;20027;-72
2023/03/06 04:59:29;;;;;;;23.92;9.88;;;3.50;99.90;;;;;;4969671;28;20057;-71
2023/03/06 05:01:54;;;;;;;24.85;10.93;;;3.50;99.90;;;;;;4969344;28;20042;-73
2023/03/06 05:04:20;;;;;;;20.42;10.50;;;3.40;99.90;;;;;;4971217;28;20129;-73
2023/03/06 05:06:46;;;;;;;21.02;10.20;;;3.40;99.90;;;;;;4968492;28;20077;-72
2023/03/06 05:09:11;;;;;;;20.50;10.23;;;3.50;99.90;;;;;;4966106;28;20031;-74
2023/03/06 05:11:37;;;;;;;22.50;10.30;;;3.50;99.90;;;;;;4965262;28;20098;-72
2023/03/06 05:14:02;;;;;;;23.70;9.98;;;3.40;99.90;;;;;;4965778;28;20035;-72
2023/03/06 05:16:28;;;;;;;23.05;9.95;;;3.40;99.90;;;;;;4970517;28;20445;-72
2023/03/06 05:18:53;;;;;;;23.70;10.85;;;3.40;99.90;;;;;;4968022;28;20054;-73
2023/03/06 05:21:19;;;;;;;22.65;11.10;;;3.40;99.90;;;;;;4966920;28;20383;-74
2023/03/06 05:23:46;;;;;;;24.20;10.50;;;3.40;99.90;;;;;;4973037;28;20062;-73
2023/03/06 05:26:13;;;;;;;21.08;10.43;;;3.40;99.90;;;;;;4969433;28;20091;-72
2023/03/06 05:28:39;;;;;;;23.98;9.90;;;3.40;99.90;;;;;;4971978;28;20022;-72
2023/03/06 05:31:06;;;;;;;20.95;9.98;;;3.40;99.90;;;;;;4971673;28;20059;-72
2023/03/06 05:33:33;;;;;;;21.40;9.68;;;3.40;99.90;;;;;;4972065;28;20479;-73
2023/03/06 05:35:59;;;;;;;27.70;12.15;;;3.40;99.90;;;;;;4970395;28;20500;-72
2023/03/06 05:38:24;;;;;;;19.17;10.02;;;3.40;99.90;;;;;;4972135;28;20035;-72
2023/03/06 05:40:50;;;;;;;21.58;10.20;;;3.40;99.90;;;;;;4967176;28;20067;-72
2023/03/06 05:43:16;;;;;;;23.88;10.30;;;3.40;99.90;;;;;;4967912;28;20035;-73
2023/03/06 05:45:42;;;;;;;24.17;10.15;;;3.30;99.90;;;;;;4966964;28;20034;-73
2023/03/06 05:48:08;;;;;;;17.95;8.55;;;3.30;99.90;;;;;;4966359;28;20023;-73
2023/03/06 05:50:33;;;;;;;19.48;9.43;;;3.30;99.90;;;;;;4972159;28;20034;-72
2023/03/06 05:52:59;;;;;;;19.67;9.70;;;3.30;99.90;;;;;;4965562;28;20035;-74
2023/03/06 05:55:25;;;;;;;20.50;9.68;;;3.30;99.90;;;;;;4967066;28;20042;-73
2023/03/06 05:57:52;;;;;;;19.40;9.10;;;3.40;99.90;;;;;;4970377;28;20328;-73
2023/03/06 06:00:18;;;;;;;20.63;9.73;;;3.40;99.90;;;;;;4970096;28;20023;-73
2023/03/06 06:02:44;;;;;;;19.27;10.05;;;3.40;99.90;;;;;;4971335;28;20039;-71
2023/03/06 06:05:10;;;;;;;23.52;9.20;;;3.40;99.90;;;;;;4969156;28;20623;-72
2023/03/06 06:07:36;;;;;;;18.65;9.13;;;3.30;99.90;;;;;;4973657;28;20093;-73
2023/03/06 06:10:02;;;;;;;20.17;9.48;;;3.40;99.90;;;;;;4971637;28;20453;-74
2023/03/06 06:12:28;;;;;;;18.83;8.55;;;3.30;99.90;;;;;;4971141;28;20023;-73
2023/03/06 06:14:54;;;;;;;18.38;8.68;;;3.30;99.90;;;;;;4967344;28;20086;-74
2023/03/06 06:17:20;;;;;;;23.58;9.70;;;3.30;99.90;;;;;;4968834;28;20031;-74
2023/03/06 06:19:45;;;;;;;18.65;9.25;;;3.30;99.90;;;;;;4968868;28;20495;-74
2023/03/06 06:22:11;;;;;;;19.95;8.85;;;3.30;99.90;;;;;;4966878;28;20031;-74
2023/03/06 06:24:37;;;;;;;20.95;9.57;;;3.30;99.90;;;;;;4968510;28;20089;-71
2023/03/06 06:27:03;;;;;;;21.88;9.77;;;3.30;99.90;;;;;;4971415;28;20503;-73
2023/03/06 06:29:30;;;;;;;21.90;9.35;;;3.30;99.90;;;;;;4967989;28;20023;-73
2023/03/06 06:31:56;;;;;;;21.95;10.32;;;3.30;99.90;;;;;;4967977;28;20078;-73
2023/03/06 06:34:22;;;;;;;20.13;10.02;;;3.30;99.90;;;;;;4971747;28;20036;-73
2023/03/06 06:36:49;;;;;;;27.13;10.50;;;3.30;99.90;;;;;;4966891;28;20027;-75
2023/03/06 06:39:17;;;;;;;21.02;9.15;;;3.30;99.90;;;;;;4970709;28;20090;-74
2023/03/06 06:41:46;;;;;;;21.85;9.75;;;3.30;99.90;;;;;;4969514;28;20035;-74
2023/03/06 06:44:14;;;;;;;20.67;9.57;;;3.30;99.90;;;;;;4973089;28;20050;-73
2023/03/06 06:46:42;;;;;;;22.08;9.00;;;3.30;99.90;;;;;;4970664;28;20062;-73
2023/03/06 06:49:08;;;;;;;19.23;9.02;;;3.30;99.90;;;;;;4970126;28;20018;-74
2023/03/06 06:51:34;;;;;;;23.60;9.70;;;3.30;99.90;;;;;;4973000;28;20022;-74
2023/03/06 06:54:00;;;;;;;17.90;8.20;;;3.30;99.90;;;;;;4961424;28;20118;-72
2023/03/06 06:56:26;;;;;;;24.40;10.43;;;3.40;99.90;;;;;;4972776;28;20035;-72
2023/03/06 06:58:58;;;;;;;21.17;9.20;;;3.40;99.90;;;;;;4971380;28;20039;-73
2023/03/06 07:01:24;;;;;;;20.33;10.40;;;3.40;99.90;;;;;;4974204;28;20027;-73
2023/03/06 07:03:50;;;;;;;18.58;9.25;;;3.40;99.90;;;;;;4972440;28;20047;-73
2023/03/06 07:06:15;;;;;;;23.75;9.23;;;3.40;99.90;;;;;;4973096;28;20114;-73
2023/03/06 07:08:41;;;;;;;19.63;9.07;;;3.40;99.90;;;;;;4971046;28;20038;-72
2023/03/06 07:11:12;;;;;;;20.60;9.35;;;3.40;99.90;;;;;;4975243;28;20019;-72
2023/03/06 07:13:38;;;;;;;21.98;9.13;;;3.40;99.90;;;;;;4965841;28;20391;-73
2023/03/06 07:16:04;;;;;;;24.85;9.43;;;3.40;99.90;;;;;;4966258;28;20085;-73
2023/03/06 07:18:30;;;;;;;23.65;9.55;;;3.40;99.90;;;;;;4967823;28;20040;-73
2023/03/06 07:20:56;;;;;;;21.02;9.80;;;3.40;99.90;;;;;;4972231;28;20365;-73
2023/03/06 07:23:22;;;;;;;24.45;9.75;;;3.40;99.90;;;;;;4969089;28;20097;-73
2023/03/06 07:25:48;;;;;;;21.08;9.35;;;3.40;99.90;;;;;;4969177;28;20145;-72
2023/03/06 07:28:14;;;;;;;21.55;9.55;;;3.40;99.90;;;;;;4973321;28;20101;-72
2023/03/06 07:30:40;;;;;;;20.73;9.63;;;3.40;99.90;;;;;;4976510;28;20027;-72
2023/03/06 07:33:06;;;;;;;18.48;9.23;;;3.40;99.90;;;;;;4974043;28;20097;-72
2023/03/06 07:35:32;;;;;;;19.35;9.07;;;3.40;99.90;;;;;;4973118;28;20027;-71
2023/03/06 07:37:57;;;;;;;21.45;9.82;;;3.40;99.90;;;;;;4970837;28;20035;-72
2023/03/06 07:40:24;;;;;;;21.85;10.18;;;3.40;99.90;;;;;;4971475;28;20085;-72
2023/03/06 07:42:53;;;;;;;21.15;9.90;;;3.50;99.90;;;;;;4970098;28;20107;-72
2023/03/06 07:45:20;;;;;;;25.48;11.07;;;3.50;99.90;;;;;;4966496;28;20027;-72
2023/03/06 07:47:45;;;;;;;19.98;10.48;;;3.50;99.90;;;;;;4979078;28;20022;-72
2023/03/06 07:50:11;;;;;;;22.98;10.57;;;3.50;99.90;;;;;;4966292;28;20034;-71
2023/03/06 07:52:37;;;;;;;25.13;9.75;;;3.50;99.90;;;;;;4967715;28;20023;-72
2023/03/06 07:55:03;;;;;;;21.52;9.77;;;3.50;99.90;;;;;;4972183;28;20390;-71
2023/03/06 07:57:29;;;;;;;23.40;10.63;;;3.50;99.90;;;;;;4965573;28;20031;-71
2023/03/06 07:59:54;;;;;;;19.98;9.68;;;3.50;99.90;;;;;;4970891;28;20019;-71
2023/03/06 08:02:20;;;;;;;23.90;10.55;;;3.60;99.90;;;;;;4971092;28;20589;-71
2023/03/06 08:04:54;;;;;;;21.17;9.80;;;3.70;99.90;;;;;;4971924;28;20645;-71
2023/03/06 08:07:20;;;;;;;18.02;9.35;;;3.70;99.90;;;;;;4967878;28;20077;-71
2023/03/06 08:09:46;;;;;;;21.65;11.00;;;3.80;99.90;;;;;;4973276;28;20042;-71
2023/03/06 08:12:12;;;;;;;25.48;10.50;;;3.80;99.90;;;;;;4973398;28;20027;-71
2023/03/06 08:14:37;;;;;;;18.42;10.18;;;3.90;99.90;;;;;;4976948;28;20038;-70
2023/03/06 08:17:03;;;;;;;21.65;10.00;;;4.00;99.90;;;;;;4974966;28;20060;-70
2023/03/06 08:19:29;;;;;;;17.98;9.15;;;4.10;99.90;;;;;;4974589;28;20559;-71
2023/03/06 08:21:54;;;;;;;22.45;10.85;;;4.10;99.90;;;;;;4974170;28;20077;-72
2023/03/06 08:24:20;;;;;;;18.85;9.57;;;4.20;99.90;;;;;;4972248;28;20030;-71
2023/03/06 08:26:46;;;;;;;21.95;9.30;;;4.20;99.90;;;;;;4972721;28;20091;-69
2023/03/06 08:29:12;;;;;;;21.55;10.38;;;4.20;99.90;;;;;;4972014;28;20072;-70
2023/03/06 08:31:40;;;;;;;21.27;10.05;;;4.30;99.90;;;;;;4976812;28;20503;-70
2023/03/06 08:34:09;;;;;;;18.90;9.50;;;4.40;99.90;;;;;;4975966;28;20038;-70
2023/03/06 08:36:34;;;;;;;19.02;9.57;;;4.40;99.90;;;;;;4972192;28;20039;-73
2023/03/06 08:39:00;;;;;;;19.35;9.52;;;4.50;99.90;;;;;;4970604;28;20377;-73
2023/03/06 08:41:26;;;;;;;20.83;9.75;;;4.50;99.90;;;;;;4970160;28;20039;-73
2023/03/06 08:43:52;;;;;;;18.63;9.98;;;4.50;99.90;;;;;;4969648;28;20113;-73
2023/03/06 08:46:19;;;;;;;21.02;10.27;;;4.50;99.90;;;;;;4970268;28;20496;-73
2023/03/06 08:48:47;;;;;;;22.70;9.80;;;4.60;99.90;;;;;;4978007;28;20150;-74
2023/03/06 08:51:16;;;;;;;20.45;9.60;;;4.60;99.90;;;;;;4971920;28;20532;-74
2023/03/06 08:53:42;;;;;;;24.42;11.45;;;4.70;99.90;;;;;;4972662;28;20092;-75
2023/03/06 08:56:14;;;;;;;22.23;10.48;;;4.60;99.90;;;;;;4971915;28;20035;-74
2023/03/06 08:58:40;;;;;;;19.23;9.35;;;4.60;99.90;;;;;;4973394;28;20480;-73
2023/03/06 09:01:15;;;;;;;17.45;9.18;;;4.70;99.90;;;;;;4974235;28;20035;-73
2023/03/06 09:03:41;;;;;;;18.17;9.32;;;4.70;99.90;;;;;;4971969;28;20460;-74
2023/03/06 09:06:07;;;;;;;18.10;9.10;;;4.80;99.90;;;;;;4972755;28;20019;-74
2023/03/06 09:08:33;;;;;;;17.85;9.07;;;4.80;99.90;;;;;;4971903;28;20026;-73
2023/03/06 09:10:59;;;;;;;17.52;9.23;;;4.90;99.90;;;;;;4975260;28;20492;-74
2023/03/06 09:13:24;;;;;;;18.25;7.88;;;4.80;99.90;;;;;;4978347;28;20448;-73
2023/03/06 09:15:50;;;;;;;19.25;8.70;;;4.80;99.90;;;;;;4970949;28;20455;-73
2023/03/06 09:18:15;;;;;;;22.73;9.10;;;4.90;99.90;;;;;;4976451;28;20031;-74
2023/03/06 09:20:41;;;;;;;17.80;8.48;;;4.80;99.90;;;;;;4971998;28;20030;-73
2023/03/06 09:23:08;;;;;;;20.98;8.65;;;4.70;99.90;;;;;;4969126;28;20483;-74
2023/03/06 09:25:34;;;;;;;16.83;8.07;;;4.70;99.90;;;;;;4976012;28;20031;-74
2023/03/06 09:27:59;;;;;;;15.57;8.15;;;4.60;99.90;;;;;;4975839;28;20111;-73
2023/03/06 09:30:25;;;;;;;18.23;8.15;;;4.60;99.90;;;;;;4979738;28;20034;-74
2023/03/06 09:32:51;;;;;;;16.35;8.35;;;4.60;99.90;;;;;;4975269;28;20037;-74
2023/03/06 09:35:17;;;;;;;19.25;8.77;;;4.60;99.90;;;;;;4974947;28;20019;-74
2023/03/06 09:37:43;;;;;;;16.75;8.48;;;4.60;99.90;;;;;;4972045;28;20499;-74
2023/03/06 09:40:33;;;;;;;18.85;8.55;;;4.60;99.90;;;;;;4983736;28;20033;-74
2023/03/06 09:42:59;;;;;;;20.80;8.45;;;4.60;99.90;;;;;;4978064;28;20089;-73
2023/03/06 09:45:25;;;;;;;16.30;8.07;;;4.60;99.90;;;;;;4978297;28;20437;-73
2023/03/06 09:47:57;;;;;;;16.77;7.93;;;4.60;99.90;;;;;;4970331;28;20027;-74
2023/03/06 09:50:31;;;;;;;15.80;7.90;;;4.60;99.90;;;;;;4970348;28;20106;-73
2023/03/06 09:53:15;;;;;;;14.43;7.78;;;4.60;99.90;;;;;;4977706;28;20038;-74
2023/03/06 09:55:44;;;;;;;15.00;7.93;;;4.60;99.90;;;;;;4978446;28;20113;-74
2023/03/06 09:58:23;;;;;;;19.98;8.60;;;4.50;99.90;;;;;;4976636;28;20030;-74
2023/03/06 10:01:16;;;;;;;16.13;8.15;;;4.50;99.90;;;;;;4975102;28;20024;-74
2023/03/06 10:04:21;;;;;;;23.92;9.40;;;4.50;99.90;;;;;;4972962;28;20046;-74
2023/03/06 10:06:50;;;;;;;17.30;8.63;;;4.50;99.90;;;;;;4963136;28;20036;-74
2023/03/06 10:09:45;;;;;;;17.15;7.93;;;4.50;99.90;;;;;;4972792;28;20408;-72
2023/03/06 10:12:25;;;;;;;21.52;9.68;;;4.40;99.90;;;;;;4973535;28;20043;-73
2023/03/06 10:15:16;;;;;;;15.13;7.60;;;4.50;99.90;;;;;;4969620;28;20038;-73
2023/03/06 10:17:42;;;;;;;17.02;8.80;;;4.60;99.90;;;;;;4967346;28;20046;-73
2023/03/06 10:20:19;;;;;;;17.88;8.77;;;4.70;99.90;;;;;;4970188;28;20052;-74
2023/03/06 10:23:23;;;;;;;17.15;7.93;;;4.80;99.90;;;;;;4969527;28;20037;-73
2023/03/06 10:26:09;;;;;;;19.00;8.93;;;4.80;99.90;;;;;;4968890;28;20030;-74
2023/03/06 10:28:45;;;;;;;15.98;8.73;;;4.90;99.90;;;;;;4968782;28;20046;-74
2023/03/06 10:31:13;;;;;;;19.17;8.65;;;5.00;99.90;;;;;;4970425;28;20027;-73
2023/03/06 10:33:42;;;;;;;16.73;8.82;;;5.00;99.90;;;;;;4976362;28;20034;-74
2023/03/06 10:36:14;;;;;;;16.65;9.15;;;5.10;99.90;;;;;;4973629;28;20034;-74
2023/03/06 10:38:40;;;;;;;17.05;9.15;;;5.20;99.90;;;;;;4971884;28;20031;-73
2023/03/06 10:41:12;;;;;;;17.20;8.50;;;5.30;99.90;;;;;;4972493;28;20372;-75
2023/03/06 10:43:39;;;;;;;18.95;8.70;;;5.50;99.90;;;;;;4959746;28;20578;-74
2023/03/06 10:46:06;;;;;;;16.45;8.43;;;5.60;99.90;;;;;;4970300;28;20019;-74
2023/03/06 10:48:37;;;;;;;22.05;9.57;;;5.70;99.90;;;;;;4973490;28;20469;-74
2023/03/06 10:51:23;;;;;;;17.25;9.35;;;5.80;99.90;;;;;;4976888;28;20038;-74
2023/03/06 10:54:00;;;;;;;17.98;9.18;;;5.90;99.90;;;;;;4972466;28;20023;-74
2023/03/06 10:56:44;;;;;;;19.42;9.73;;;6.00;99.90;;;;;;4970570;28;20077;-74
2023/03/06 10:59:27;;;;;;;18.85;8.70;;;6.00;99.90;;;;;;4964534;28;20090;-73
2023/03/06 11:01:56;;;;;;;18.58;9.05;;;6.00;99.90;;;;;;4970017;28;20114;-73
2023/03/06 11:04:32;;;;;;;16.52;9.20;;;6.00;99.90;;;;;;4970469;28;20639;-73
2023/03/06 11:07:07;;;;;;;17.80;9.25;;;6.10;99.90;;;;;;4970788;28;20031;-74
2023/03/06 11:09:35;;;;;;;24.73;9.77;;;6.10;99.90;;;;;;4965904;28;20110;-73
2023/03/06 11:12:21;;;;;;;16.90;8.63;;;6.00;99.90;;;;;;4968871;28;20027;-74
2023/03/06 11:15:05;;;;;;;19.35;9.10;;;6.00;99.90;;;;;;4976079;28;20050;-74
2023/03/06 11:17:33;;;;;;;18.05;9.25;;;6.10;99.90;;;;;;4983884;28;20511;-74
2023/03/06 11:20:25;;;;;;;20.58;9.00;;;6.10;99.90;;;;;;4977326;28;20035;-74
2023/03/06 11:23:02;;;;;;;16.55;8.68;;;6.10;99.90;;;;;;4971093;28;20096;-74
2023/03/06 11:25:33;;;;;;;16.67;8.30;;;6.10;99.90;;;;;;4968500;28;20019;-74
2023/03/06 11:28:06;;;;;;;16.77;8.63;;;6.00;99.90;;;;;;4967806;28;20019;-74
2023/03/06 11:30:37;;;;;;;15.27;8.68;;;6.00;99.90;;;;;;4970152;28;20066;-74
2023/03/06 11:33:29;;;;;;;17.40;8.38;;;6.00;99.90;;;;;;4967217;28;20045;-74
2023/03/06 11:36:09;;;;;;;14.30;8.13;;;6.10;99.90;;;;;;4968947;28;20089;-74
2023/03/06 11:38:42;;;;;;;15.13;8.63;;;6.00;99.90;;;;;;4963131;28;20031;-75
2023/03/06 11:41:35;;;;;;;15.65;8.85;;;6.00;99.90;;;;;;4970427;28;20534;-74
2023/03/06 11:44:20;;;;;;;20.30;8.95;;;6.00;99.90;;;;;;4972427;28;20046;-74
2023/03/06 11:46:57;;;;;;;15.52;7.97;;;6.00;99.90;;;;;;4985204;28;20443;-74
2023/03/06 11:49:38;;;;;;;16.40;8.70;;;5.90;99.90;;;;;;4986630;28;20026;-74
2023/03/06 11:52:11;;;;;;;19.65;8.85;;;6.00;99.90;;;;;;4975100;28;20019;-75
2023/03/06 11:54:37;;;;;;;18.63;9.68;;;5.90;99.90;;;;;;4972529;28;20031;-74
2023/03/06 11:57:14;;;;;;;20.27;9.05;;;5.90;99.90;;;;;;4971120;28;20050;-73
2023/03/06 12:00:12;;;;;;;14.85;7.72;;;5.90;99.90;;;;;;4975044;28;20365;-74
2023/03/06 12:02:59;;;;;;;13.75;7.55;;;5.80;99.90;;;;;;4980633;28;20122;-74
2023/03/06 12:05:36;;;;;;;14.57;6.78;;;5.90;99.90;;;;;;4971076;28;20033;-74
2023/03/06 12:08:12;;;;;;;14.32;5.65;;;5.90;99.90;;;;;;4973925;28;20023;-74
2023/03/06 12:11:10;;;;;;;10.88;5.75;;;5.80;99.90;;;;;;4970692;28;20054;-74
2023/03/06 12:14:24;;;;;;;15.88;6.32;;;5.90;99.90;;;;;;4968903;28;20035;-74
2023/03/06 12:17:05;;;;;;;15.02;6.38;;;5.90;99.90;;;;;;4971080;28;20042;-74
2023/03/06 12:19:32;;;;;;;13.45;7.22;;;5.90;99.90;;;;;;4970389;28;20023;-76
2023/03/06 12:22:16;;;;;;;13.65;6.38;;;6.00;99.90;;;;;;4970268;28;20034;-75
2023/03/06 12:24:56;;;;;;;13.90;7.40;;;6.20;99.90;;;;;;4972142;28;20034;-75
2023/03/06 12:27:46;;;;;;;15.43;7.18;;;6.30;99.90;;;;;;4972327;28;20042;-75
2023/03/06 12:30:29;;;;;;;13.27;6.95;;;6.30;99.90;;;;;;4970200;28;20069;-76
2023/03/06 12:33:21;;;;;;;16.00;6.88;;;6.40;99.90;;;;;;4967810;28;20476;-76
2023/03/06 12:36:13;;;;;;;12.48;6.72;;;6.50;99.90;;;;;;4964071;28;20058;-75
2023/03/06 12:39:00;;;;;;;13.43;6.55;;;6.60;99.90;;;;;;4975153;28;20057;-74
2023/03/06 12:41:59;;;;;;;11.63;6.10;;;6.70;99.90;;;;;;4971859;28;20047;-74
2023/03/06 12:44:36;;;;;;;12.23;6.63;;;6.80;99.90;;;;;;4968674;28;20031;-74
2023/03/06 12:47:08;;;;;;;9.85;5.78;;;6.80;99.30;;;;;;4971628;28;20034;-74
2023/03/06 12:49:37;;;;;;;10.05;5.22;;;6.80;98.80;;;;;;4966683;28;20494;-76
2023/03/06 12:52:09;;;;;;;11.18;6.40;;;6.80;98.30;;;;;;4971266;28;20146;-74
2023/03/06 12:54:40;;;;;;;12.80;6.68;;;6.80;98.30;;;;;;4976732;28;20042;-73